createdAt,value
2018-07-12T00:01:31.250Z,14.70
2018-07-12T00:06:31.881Z,14.70
2018-07-12T00:08:59.861Z,14.70
2018-07-12T00:11:28.001Z,14.70
2018-07-12T00:13:56.561Z,14.70
2018-07-12T00:16:24.600Z,14.70
2018-07-12T00:18:56.560Z,14.70
2018-07-12T00:21:24.640Z,14.70
2018-07-12T00:23:52.620Z,14.60
2018-07-12T00:26:20.440Z,14.60
2018-07-12T00:28:49.000Z,14.60
2018-07-12T00:31:16.920Z,14.50
2018-07-12T00:33:45.371Z,14.50
2018-07-12T00:36:13.801Z,14.50
2018-07-12T00:38:41.742Z,14.50
2018-07-12T00:41:10.322Z,14.40
2018-07-12T00:43:38.603Z,14.40
2018-07-12T00:48:36.559Z,14.40
2018-07-12T00:51:04.719Z,14.40
2018-07-12T00:53:33.078Z,14.40
2018-07-12T00:58:30.319Z,14.40
2018-07-12T01:00:58.183Z,14.40
2018-07-12T01:03:26.721Z,14.40
2018-07-12T01:05:55.361Z,14.40
2018-07-12T01:08:23.606Z,14.40
2018-07-12T01:10:51.682Z,14.40
2018-07-12T01:13:19.822Z,14.40
2018-07-12T01:15:48.242Z,14.40
2018-07-12T01:18:16.402Z,14.40
2018-07-12T01:20:44.843Z,14.40
2018-07-12T01:23:13.502Z,14.40
2018-07-12T01:25:42.146Z,14.40
2018-07-12T01:28:10.342Z,14.40
2018-07-12T01:30:38.442Z,14.40
2018-07-12T01:33:06.602Z,14.40
2018-07-12T01:35:34.842Z,14.40
2018-07-12T01:38:02.962Z,14.40
2018-07-12T01:40:31.042Z,14.40
2018-07-12T01:42:59.562Z,14.40
2018-07-12T01:45:28.043Z,14.40
2018-07-12T01:47:56.202Z,14.40
2018-07-12T01:50:28.160Z,14.40
2018-07-12T01:52:56.980Z,14.30
2018-07-12T01:55:25.221Z,14.40
2018-07-12T01:57:53.662Z,14.30
2018-07-12T02:00:21.438Z,14.30
2018-07-12T02:02:49.378Z,14.30
2018-07-12T02:05:17.738Z,14.30
2018-07-12T02:07:45.598Z,14.30
2018-07-12T02:10:14.220Z,14.30
2018-07-12T02:12:42.598Z,14.30
2018-07-12T02:15:10.767Z,14.30
2018-07-12T02:17:39.238Z,14.30
2018-07-12T02:20:07.398Z,14.30
2018-07-12T02:22:35.559Z,14.30
2018-07-12T02:27:32.704Z,14.30
2018-07-12T02:30:00.639Z,14.20
2018-07-12T02:32:29.259Z,14.30
2018-07-12T02:34:57.868Z,14.30
2018-07-12T02:37:26.399Z,14.20
2018-07-12T02:39:54.619Z,14.20
2018-07-12T02:42:22.760Z,14.20
2018-07-12T02:44:51.199Z,14.20
2018-07-12T02:47:21.319Z,14.20
2018-07-12T02:49:50.439Z,14.20
2018-07-12T02:52:19.039Z,14.20
2018-07-12T02:54:47.199Z,14.20
2018-07-12T02:57:15.860Z,14.20
2018-07-12T02:59:44.039Z,14.20
2018-07-12T03:02:12.379Z,14.20
2018-07-12T03:04:40.322Z,14.20
2018-07-12T03:07:08.779Z,14.20
2018-07-12T03:09:36.639Z,14.20
2018-07-12T03:12:04.859Z,14.20
2018-07-12T03:14:33.119Z,14.20
2018-07-12T03:17:01.741Z,14.20
2018-07-12T03:19:29.959Z,14.20
2018-07-12T03:24:27.125Z,14.20
2018-07-12T03:26:55.660Z,14.20
2018-07-12T03:29:23.559Z,14.20
2018-07-12T03:31:52.120Z,14.20
2018-07-12T03:34:20.259Z,14.20
2018-07-12T03:36:48.579Z,14.20
2018-07-12T03:41:45.359Z,14.20
2018-07-12T03:44:13.499Z,14.20
2018-07-12T03:46:41.500Z,14.20
2018-07-12T03:49:10.040Z,14.20
2018-07-12T03:51:37.959Z,14.20
2018-07-12T03:54:06.299Z,14.20
2018-07-12T03:56:34.380Z,14.20
2018-07-12T03:59:02.379Z,14.20
2018-07-12T04:01:30.286Z,14.20
2018-07-12T04:03:58.467Z,14.20
2018-07-12T04:06:27.647Z,14.30
2018-07-12T04:08:55.727Z,14.30
2018-07-12T04:11:24.067Z,14.30
2018-07-12T04:13:52.047Z,14.40
2018-07-12T04:16:20.207Z,14.40
2018-07-12T04:21:20.386Z,14.40
2018-07-12T04:23:48.541Z,14.40
2018-07-12T04:26:16.802Z,14.50
2018-07-12T04:28:45.182Z,14.50
2018-07-12T04:31:13.324Z,14.50
2018-07-12T04:36:10.262Z,15.10
2018-07-12T04:38:38.185Z,15.70
2018-07-12T04:41:06.882Z,15.90
2018-07-12T04:43:35.841Z,15.90
2018-07-12T04:46:04.321Z,15.90
2018-07-12T04:48:32.359Z,15.80
2018-07-12T04:51:01.060Z,15.70
2018-07-12T04:53:29.300Z,15.50
2018-07-12T04:55:57.603Z,15.50
2018-07-12T04:58:25.994Z,15.40
2018-07-12T05:00:54.441Z,15.40
2018-07-12T05:03:22.541Z,15.40
2018-07-12T05:05:50.441Z,15.40
2018-07-12T05:08:18.722Z,15.40
2018-07-12T05:10:47.162Z,15.40
2018-07-12T05:13:15.261Z,15.40
2018-07-12T05:15:43.322Z,15.40
2018-07-12T05:18:11.601Z,15.40
2018-07-12T05:20:39.641Z,15.50
2018-07-12T05:23:18.027Z,15.50
2018-07-12T05:25:54.189Z,15.60
2018-07-12T05:28:23.620Z,15.70
2018-07-12T05:30:51.903Z,15.90
2018-07-12T05:33:20.479Z,16.30
2018-07-12T05:35:50.503Z,16.60
2018-07-12T05:38:20.379Z,17.00
2018-07-12T05:40:51.312Z,17.10
2018-07-12T05:43:20.884Z,17.20
2018-07-12T05:45:51.101Z,17.20
2018-07-12T05:48:20.704Z,17.20
2018-07-12T05:50:50.999Z,17.20
2018-07-12T05:53:20.978Z,17.10
2018-07-12T05:55:50.600Z,17.10
2018-07-12T05:58:20.423Z,17.10
2018-07-12T06:00:50.179Z,17.10
2018-07-12T06:03:19.848Z,17.10
2018-07-12T06:05:49.759Z,17.00
2018-07-12T06:08:19.521Z,17.00
2018-07-12T06:10:49.323Z,16.90
2018-07-12T06:13:19.045Z,16.90
2018-07-12T06:18:23.087Z,16.80
2018-07-12T06:20:52.839Z,16.70
2018-07-12T06:23:22.380Z,16.70
2018-07-12T06:25:52.719Z,16.70
2018-07-12T06:28:26.321Z,16.70
2018-07-12T06:30:56.079Z,16.60
2018-07-12T06:33:25.740Z,16.60
2018-07-12T06:35:55.321Z,16.50
2018-07-12T06:45:52.561Z,16.50
2018-07-12T06:48:22.659Z,16.60
2018-07-12T06:50:53.799Z,16.60
2018-07-12T06:53:27.499Z,16.70
2018-07-12T06:55:57.059Z,16.70
2018-07-12T06:58:27.841Z,16.60
2018-07-12T07:00:57.605Z,16.60
2018-07-12T07:03:28.044Z,16.70
2018-07-12T07:13:30.939Z,17.30
2018-07-12T07:16:00.621Z,17.40
2018-07-12T07:18:30.259Z,17.50
2018-07-12T07:21:00.067Z,17.70
2018-07-12T07:23:29.721Z,17.80
2018-07-12T07:25:59.498Z,17.90
2018-07-12T07:28:29.180Z,17.90
2018-07-12T07:30:58.865Z,18.00
2018-07-12T07:33:28.505Z,18.10
2018-07-12T07:35:58.451Z,18.20
2018-07-12T07:38:29.284Z,18.30
2018-07-12T07:40:58.991Z,18.60
2018-07-12T07:43:29.682Z,18.80
2018-07-12T07:45:59.526Z,19.00
2018-07-12T07:48:29.222Z,19.10
2018-07-12T07:50:58.946Z,19.10
2018-07-12T07:53:28.532Z,19.10
2018-07-12T07:55:58.364Z,19.10
2018-07-12T07:58:28.049Z,19.10
2018-07-12T08:01:01.941Z,19.10
2018-07-12T08:03:31.541Z,19.10
2018-07-12T08:06:01.205Z,19.20
2018-07-12T08:08:31.056Z,19.30
2018-07-12T08:11:01.785Z,19.50
2018-07-12T08:13:31.600Z,19.90
2018-07-12T08:18:34.685Z,20.90
2018-07-12T08:21:04.945Z,21.30
2018-07-12T08:23:34.527Z,21.50
2018-07-12T08:26:04.200Z,21.80
2018-07-12T08:28:33.762Z,21.80
2018-07-12T08:31:04.722Z,21.90
2018-07-12T08:33:34.222Z,22.00
2018-07-12T08:36:05.124Z,22.00
2018-07-12T08:38:38.759Z,22.20
2018-07-12T08:41:09.024Z,22.40
2018-07-12T08:43:38.533Z,22.40
2018-07-12T08:46:08.213Z,22.20
2018-07-12T08:48:38.063Z,22.00
2018-07-12T08:51:07.759Z,21.70
2018-07-12T08:53:37.478Z,21.60
2018-07-12T08:56:07.463Z,21.60
2018-07-12T08:58:36.961Z,21.40
2018-07-12T09:01:06.882Z,21.40
2018-07-12T09:03:36.402Z,21.30
2018-07-12T09:06:06.462Z,21.10
2018-07-12T09:08:36.582Z,21.00
2018-07-12T09:11:06.562Z,21.10
2018-07-12T09:13:37.923Z,21.00
2018-07-12T09:16:07.747Z,20.90
2018-07-12T09:18:37.743Z,20.90
2018-07-12T09:21:07.563Z,20.90
2018-07-12T09:23:37.303Z,20.80
2018-07-12T09:26:07.164Z,20.70
2018-07-12T09:28:36.884Z,20.90
2018-07-12T09:31:06.941Z,21.20
2018-07-12T09:33:36.642Z,21.10
2018-07-12T09:36:06.882Z,21.20
2018-07-12T09:38:52.362Z,21.50
2018-07-12T09:41:24.642Z,21.70
2018-07-12T09:43:55.244Z,22.00
2018-07-12T09:46:25.442Z,22.30
2018-07-12T09:48:55.435Z,22.40
2018-07-12T09:51:25.042Z,22.50
2018-07-12T09:53:55.883Z,22.30
2018-07-12T09:56:36.044Z,22.10
2018-07-12T09:59:06.281Z,22.00
2018-07-12T10:01:41.100Z,21.90
2018-07-12T10:04:11.239Z,21.80
2018-07-12T10:09:20.039Z,21.80
2018-07-12T10:11:55.280Z,22.00
2018-07-12T10:14:30.459Z,22.40
2018-07-12T10:17:05.666Z,22.40
2018-07-12T10:19:35.460Z,22.40
2018-07-12T10:22:05.487Z,22.60
2018-07-12T10:24:35.243Z,22.90
2018-07-12T10:27:05.025Z,22.80
2018-07-12T10:29:34.884Z,22.80
2018-07-12T10:32:04.907Z,23.10
2018-07-12T10:34:34.762Z,23.20
2018-07-12T10:37:04.582Z,22.90
2018-07-12T10:39:35.087Z,22.50
2018-07-12T10:42:08.832Z,22.60
2018-07-12T10:47:09.759Z,22.80
2018-07-12T10:49:40.199Z,22.80
2018-07-12T10:52:09.879Z,22.80
2018-07-12T10:54:39.719Z,22.60
2018-07-12T10:57:09.519Z,22.60
2018-07-12T10:59:39.319Z,22.80
2018-07-12T11:02:08.959Z,23.00
2018-07-12T11:04:39.339Z,23.10
2018-07-12T11:07:09.559Z,23.10
2018-07-12T11:09:39.578Z,23.10
2018-07-12T11:12:09.278Z,23.30
2018-07-12T11:14:39.399Z,23.40
2018-07-12T11:17:13.579Z,23.40
2018-07-12T11:19:43.840Z,23.40
2018-07-12T11:22:14.239Z,23.40
2018-07-12T11:24:45.358Z,23.20
2018-07-12T11:27:15.881Z,23.10
2018-07-12T11:29:54.359Z,23.10
2018-07-12T11:32:24.280Z,23.00
2018-07-12T11:34:54.004Z,23.10
2018-07-12T11:37:28.419Z,23.10
2018-07-12T11:39:58.079Z,23.40
2018-07-12T11:42:27.798Z,23.80
2018-07-12T11:44:58.000Z,24.10
2018-07-12T11:47:28.059Z,24.20
2018-07-12T11:52:27.482Z,24.50
2018-07-12T11:54:57.959Z,24.60
2018-07-12T11:57:28.221Z,24.70
2018-07-12T11:59:57.860Z,24.80
2018-07-12T12:02:27.905Z,24.70
2018-07-12T12:04:57.984Z,24.50
2018-07-12T12:09:58.121Z,24.50
2018-07-12T12:12:28.788Z,24.60
2018-07-12T12:14:59.245Z,24.90
2018-07-12T12:17:29.106Z,24.90
2018-07-12T12:22:32.919Z,24.80
2018-07-12T12:25:02.899Z,24.60
2018-07-12T12:27:33.034Z,24.40
2018-07-12T12:30:02.859Z,24.50
2018-07-12T12:32:34.181Z,24.30
2018-07-12T12:35:03.942Z,24.40
2018-07-12T12:37:34.121Z,24.40
2018-07-12T12:40:03.841Z,24.30
2018-07-12T12:42:38.000Z,24.40
2018-07-12T12:45:07.740Z,24.50
2018-07-12T12:47:37.980Z,24.50
2018-07-12T12:50:08.059Z,24.60
2018-07-12T12:52:37.680Z,24.40
2018-07-12T12:55:07.898Z,24.30
2018-07-12T12:57:38.259Z,24.10
2018-07-12T13:00:09.274Z,24.10
2018-07-12T13:02:39.282Z,24.20
2018-07-12T13:07:39.242Z,24.20
2018-07-12T13:10:08.960Z,24.30
2018-07-12T13:12:38.680Z,24.40
2018-07-12T13:15:08.439Z,24.70
2018-07-12T13:17:38.559Z,25.00
2018-07-12T13:22:38.743Z,24.60
2018-07-12T13:25:08.640Z,24.80
2018-07-12T13:27:39.220Z,24.90
2018-07-12T13:30:09.039Z,24.90
2018-07-12T13:32:38.940Z,24.90
2018-07-12T13:35:08.821Z,24.90
2018-07-12T13:40:08.640Z,24.80
2018-07-12T13:42:38.779Z,24.70
2018-07-12T13:45:08.579Z,24.60
2018-07-12T13:47:38.219Z,24.50
2018-07-12T13:50:08.339Z,24.20
2018-07-12T13:52:38.405Z,24.00
2018-07-12T13:55:08.323Z,23.80
2018-07-12T13:57:38.119Z,23.80
2018-07-12T14:00:07.759Z,23.80
2018-07-12T14:02:37.902Z,23.80
2018-07-12T14:05:07.916Z,23.90
2018-07-12T14:07:38.062Z,24.00
2018-07-12T14:10:08.062Z,24.20
2018-07-12T14:12:37.721Z,24.30
2018-07-12T14:17:37.029Z,24.00
2018-07-12T14:20:06.721Z,23.80
2018-07-12T14:22:36.844Z,23.70
2018-07-12T14:25:06.262Z,23.60
2018-07-12T14:27:36.064Z,23.60
2018-07-12T14:30:07.102Z,23.70
2018-07-12T14:32:37.163Z,23.70
2018-07-12T14:35:06.942Z,23.60
2018-07-12T14:37:40.882Z,23.40
2018-07-12T14:40:11.464Z,23.40
2018-07-12T14:42:41.361Z,23.40
2018-07-12T14:45:11.222Z,23.50
2018-07-12T14:47:40.803Z,23.50
2018-07-12T14:50:10.622Z,23.60
2018-07-12T14:52:40.362Z,23.60
2018-07-12T14:55:15.782Z,23.60
2018-07-12T14:57:45.662Z,23.60
2018-07-12T15:00:15.250Z,23.60
2018-07-12T15:02:45.284Z,23.60
2018-07-12T15:05:15.264Z,23.60
2018-07-12T15:07:45.264Z,23.50
2018-07-12T15:10:20.203Z,23.50
2018-07-12T15:12:51.043Z,23.60
2018-07-12T15:15:20.967Z,23.50
2018-07-12T15:17:50.904Z,23.50
2018-07-12T15:20:20.702Z,23.40
2018-07-12T15:22:50.342Z,23.30
2018-07-12T15:25:21.025Z,23.20
2018-07-12T15:27:51.046Z,23.30
2018-07-12T15:30:20.814Z,23.20
2018-07-12T15:32:50.981Z,23.00
2018-07-12T15:35:20.622Z,22.90
2018-07-12T15:40:20.002Z,22.90
2018-07-12T15:45:19.659Z,23.00
2018-07-12T15:47:50.060Z,23.00
2018-07-12T15:50:26.499Z,23.00
2018-07-12T15:52:56.483Z,23.00
2018-07-12T15:55:27.082Z,23.10
2018-07-12T15:57:56.838Z,23.10
2018-07-12T16:00:26.477Z,23.00
2018-07-12T16:02:56.260Z,23.00
2018-07-12T16:05:26.080Z,23.00
2018-07-12T16:07:55.760Z,22.90
2018-07-12T16:10:25.664Z,22.90
2018-07-12T16:15:30.619Z,22.80
2018-07-12T16:18:00.380Z,22.70
2018-07-12T16:25:34.640Z,22.60
2018-07-12T16:28:04.380Z,22.60
2018-07-12T16:33:03.780Z,22.60
2018-07-12T16:35:33.481Z,22.60
2018-07-12T16:38:03.580Z,22.60
2018-07-12T16:40:33.660Z,22.60
2018-07-12T16:43:03.320Z,22.60
2018-07-12T16:45:35.960Z,22.60
2018-07-12T16:48:05.822Z,22.60
2018-07-12T16:50:40.061Z,22.60
2018-07-12T16:53:10.500Z,22.50
2018-07-12T16:55:44.620Z,22.50
2018-07-12T16:58:14.707Z,22.50
2018-07-12T17:03:13.860Z,22.50
2018-07-12T17:05:43.722Z,22.50
2018-07-12T17:08:13.843Z,22.50
2018-07-12T17:10:43.503Z,22.50
2018-07-12T17:13:13.980Z,22.50
2018-07-12T17:15:44.062Z,22.50
2018-07-12T17:18:14.441Z,22.50
2018-07-12T17:20:44.260Z,22.40
2018-07-12T17:23:14.220Z,22.40
2018-07-12T17:25:43.703Z,22.40
2018-07-12T17:28:13.540Z,22.30
2018-07-12T17:30:44.120Z,22.30
2018-07-12T17:33:14.053Z,22.30
2018-07-12T17:35:44.381Z,22.20
2018-07-12T17:38:14.400Z,22.30
2018-07-12T17:40:44.301Z,22.30
2018-07-12T17:43:13.921Z,22.20
2018-07-12T17:45:43.734Z,22.10
2018-07-12T17:48:13.449Z,22.10
2018-07-12T17:50:42.950Z,22.10
2018-07-12T17:53:12.689Z,22.00
2018-07-12T17:55:42.757Z,22.00
2018-07-12T17:58:13.289Z,22.00
2018-07-12T18:00:44.719Z,21.90
2018-07-12T18:03:14.779Z,21.90
2018-07-12T18:05:44.641Z,21.80
2018-07-12T18:08:14.846Z,21.80
2018-07-12T18:10:45.359Z,21.80
2018-07-12T18:13:15.560Z,21.80
2018-07-12T18:15:45.324Z,21.70
2018-07-12T18:18:15.181Z,21.70
2018-07-12T18:20:45.762Z,21.60
2018-07-12T18:23:15.620Z,21.60
2018-07-12T18:25:45.441Z,21.50
2018-07-12T18:28:15.259Z,21.40
2018-07-12T18:30:45.481Z,21.30
2018-07-12T18:33:15.321Z,21.20
2018-07-12T18:35:45.041Z,21.20
2018-07-12T18:38:15.021Z,21.10
2018-07-12T18:40:45.161Z,21.10
2018-07-12T18:43:15.519Z,21.10
2018-07-12T18:45:45.879Z,21.10
2018-07-12T18:48:15.684Z,21.00
2018-07-12T18:50:45.459Z,21.00
2018-07-12T18:53:15.101Z,20.90
2018-07-12T18:55:44.744Z,20.90
2018-07-12T18:58:14.779Z,20.80
2018-07-12T19:00:45.161Z,20.80
2018-07-12T19:03:15.340Z,20.70
2018-07-12T19:05:45.620Z,20.70
2018-07-12T19:08:15.890Z,20.60
2018-07-12T19:10:46.362Z,20.60
2018-07-12T19:13:16.422Z,20.60
2018-07-12T19:15:46.302Z,20.50
2018-07-12T19:20:45.336Z,20.40
2018-07-12T19:23:15.220Z,20.40
2018-07-12T19:25:44.923Z,20.40
2018-07-12T19:28:14.841Z,20.40
2018-07-12T19:30:44.818Z,20.40
2018-07-12T19:33:15.260Z,20.40
2018-07-12T19:35:44.980Z,20.30
2018-07-12T19:38:16.063Z,20.30
2018-07-12T19:40:46.180Z,20.30
2018-07-12T19:43:16.541Z,20.20
2018-07-12T19:45:46.600Z,20.20
2018-07-12T19:48:16.594Z,20.20
2018-07-12T19:53:20.701Z,20.20
2018-07-12T19:55:50.401Z,20.20
2018-07-12T19:58:20.100Z,20.10
2018-07-12T20:00:49.860Z,20.10
2018-07-12T20:03:19.701Z,20.10
2018-07-12T20:05:49.502Z,19.90
2018-07-12T20:08:19.880Z,19.90
2018-07-12T20:10:49.599Z,19.80
2018-07-12T20:13:19.299Z,19.80
2018-07-12T20:15:49.153Z,19.70
2018-07-12T20:18:19.219Z,19.70
2018-07-12T20:20:48.822Z,19.60
2018-07-12T20:23:18.759Z,19.50
2018-07-12T20:25:48.485Z,19.50
2018-07-12T20:28:18.239Z,19.40
2018-07-12T20:30:49.385Z,19.40
2018-07-12T20:33:19.345Z,19.30
2018-07-12T20:35:49.392Z,19.30
2018-07-12T20:38:18.924Z,19.30
2018-07-12T20:40:48.511Z,19.30
2018-07-12T20:43:20.408Z,19.30
2018-07-12T20:45:50.444Z,19.40
2018-07-12T20:48:20.205Z,19.30
2018-07-12T20:50:49.803Z,19.30
2018-07-12T20:53:19.401Z,19.30
2018-07-12T20:55:48.965Z,19.20
2018-07-12T20:58:18.862Z,19.10
2018-07-12T21:00:48.593Z,19.00
2018-07-12T21:03:18.123Z,19.00
2018-07-12T21:05:47.655Z,19.00
2018-07-12T21:08:17.441Z,19.00
2018-07-12T21:10:47.021Z,18.90
2018-07-12T21:13:16.644Z,18.90
2018-07-12T21:15:47.000Z,18.80
2018-07-12T21:18:16.646Z,18.80
2018-07-12T21:20:46.042Z,18.70
2018-07-12T21:23:16.209Z,18.70
2018-07-12T21:25:46.080Z,18.70
2018-07-12T21:28:16.384Z,18.60
2018-07-12T21:30:46.800Z,18.60
2018-07-12T21:33:16.526Z,18.60
2018-07-12T21:38:15.943Z,18.50
2018-07-12T21:40:45.879Z,18.40
2018-07-12T21:43:15.879Z,18.40
2018-07-12T21:45:45.919Z,18.40
2018-07-12T21:48:15.621Z,18.30
2018-07-12T21:50:45.539Z,18.30
2018-07-12T21:53:15.839Z,18.10
2018-07-12T21:55:46.279Z,18.10
2018-07-12T21:58:15.916Z,18.10
2018-07-12T22:00:46.843Z,18.10
2018-07-12T22:03:17.147Z,18.00
2018-07-12T22:05:47.063Z,17.90
2018-07-12T22:08:18.374Z,17.80
2018-07-12T22:10:49.306Z,17.80
2018-07-12T22:13:20.004Z,17.80
2018-07-12T22:15:49.823Z,17.90
2018-07-12T22:18:19.903Z,17.90
2018-07-12T22:20:49.883Z,17.90
2018-07-12T22:23:20.024Z,17.90
2018-07-12T22:25:50.403Z,17.80
2018-07-12T22:28:20.224Z,17.80
2018-07-12T22:30:50.264Z,17.80
2018-07-12T22:33:21.224Z,17.80
2018-07-12T22:35:52.343Z,17.70
2018-07-12T22:40:52.003Z,17.50
2018-07-12T22:43:22.602Z,17.40
2018-07-12T22:45:52.442Z,17.50
2018-07-12T22:48:22.228Z,17.40
2018-07-12T22:50:52.225Z,17.40
2018-07-12T22:53:21.841Z,17.40
2018-07-12T22:55:51.641Z,17.40
2018-07-12T22:58:21.439Z,17.30
2018-07-12T23:00:51.643Z,17.30
2018-07-12T23:03:21.641Z,17.30
2018-07-12T23:05:52.979Z,17.30
2018-07-12T23:08:22.680Z,17.20
2018-07-12T23:13:23.140Z,17.20
2018-07-12T23:15:52.839Z,17.10
2018-07-12T23:18:23.020Z,17.00
2018-07-12T23:20:52.759Z,17.00
2018-07-12T23:23:23.201Z,16.90
2018-07-12T23:25:53.300Z,16.90
2018-07-12T23:28:23.420Z,16.90
2018-07-12T23:30:53.120Z,16.90
2018-07-12T23:33:23.579Z,16.90
2018-07-12T23:35:53.659Z,16.90
2018-07-12T23:40:54.818Z,16.80
2018-07-12T23:43:24.838Z,16.70
2018-07-12T23:48:24.058Z,16.50
2018-07-12T23:50:53.759Z,16.50
2018-07-12T23:53:24.319Z,16.50
2018-07-12T23:55:54.179Z,16.50
2018-07-12T23:58:28.902Z,16.50
